createdAt,value
2018-03-23T00:01:29.392Z,20.97
2018-03-23T00:03:56.988Z,22.13
2018-03-23T00:06:24.571Z,24.17
2018-03-23T00:08:52.113Z,23.43
2018-03-23T00:11:20.452Z,22.27
2018-03-23T00:13:48.013Z,21.87
2018-03-23T00:16:15.573Z,22.43
2018-03-23T00:18:43.134Z,21.47
2018-03-23T00:21:10.691Z,22.00
2018-03-23T00:23:38.294Z,21.27
2018-03-23T00:26:05.869Z,22.80
2018-03-23T00:28:33.415Z,22.10
2018-03-23T00:31:01.039Z,22.50
2018-03-23T00:33:28.616Z,21.90
2018-03-23T00:35:56.160Z,23.13
2018-03-23T00:38:23.762Z,22.13
2018-03-23T00:40:52.094Z,22.63
2018-03-23T00:43:19.694Z,22.07
2018-03-23T00:45:48.073Z,23.03
2018-03-23T00:48:15.633Z,22.17
2018-03-23T00:50:43.205Z,21.83
2018-03-23T00:53:10.773Z,21.03
2018-03-23T00:55:38.394Z,22.27
2018-03-23T00:58:05.971Z,22.13
2018-03-23T01:00:33.643Z,22.63
2018-03-23T01:03:01.234Z,23.10
2018-03-23T01:05:28.794Z,24.07
2018-03-23T01:07:56.390Z,22.60
2018-03-23T01:10:23.931Z,23.03
2018-03-23T01:12:52.295Z,21.90
2018-03-23T01:15:19.858Z,21.80
2018-03-23T01:17:47.458Z,21.73
2018-03-23T01:20:15.011Z,23.77
2018-03-23T01:22:42.567Z,22.23
2018-03-23T01:25:10.159Z,22.70
2018-03-23T01:27:37.704Z,23.77
2018-03-23T01:30:05.301Z,24.43
2018-03-23T01:32:32.879Z,23.03
2018-03-23T01:35:00.491Z,22.33
2018-03-23T01:37:28.808Z,22.03
2018-03-23T01:39:56.341Z,23.43
2018-03-23T01:42:23.927Z,23.37
2018-03-23T01:44:51.512Z,24.73
2018-03-23T01:47:19.090Z,23.03
2018-03-23T01:49:46.666Z,23.10
2018-03-23T01:52:14.244Z,21.77
2018-03-23T01:54:42.606Z,21.13
2018-03-23T01:57:10.991Z,19.77
2018-03-23T01:59:38.542Z,20.83
2018-03-23T02:02:06.128Z,21.67
2018-03-23T02:04:33.684Z,21.90
2018-03-23T02:07:01.259Z,22.23
2018-03-23T02:09:28.838Z,22.67
2018-03-23T02:11:56.394Z,22.27
2018-03-23T02:14:23.984Z,22.57
2018-03-23T02:16:51.555Z,22.27
2018-03-23T02:19:19.209Z,22.57
2018-03-23T02:21:46.759Z,23.97
2018-03-23T02:24:14.320Z,24.20
2018-03-23T02:26:41.924Z,22.60
2018-03-23T02:29:09.519Z,24.23
2018-03-23T02:31:37.180Z,22.53
2018-03-23T02:34:04.779Z,22.37
2018-03-23T02:36:32.310Z,22.70
2018-03-23T02:38:59.933Z,24.13
2018-03-23T02:41:27.497Z,23.57
2018-03-23T02:43:55.034Z,22.43
2018-03-23T02:46:22.682Z,23.63
2018-03-23T02:48:50.316Z,23.77
2018-03-23T02:51:17.906Z,23.97
2018-03-23T02:53:45.501Z,21.33
2018-03-23T02:56:13.047Z,21.77
2018-03-23T02:58:41.365Z,21.77
2018-03-23T03:01:08.966Z,21.90
2018-03-23T03:03:36.524Z,20.50
2018-03-23T03:06:04.117Z,21.23
2018-03-23T03:08:31.643Z,21.60
2018-03-23T03:10:59.206Z,23.07
2018-03-23T03:13:26.755Z,22.03
2018-03-23T03:15:54.362Z,21.80
2018-03-23T03:18:22.297Z,21.30
2018-03-23T03:20:50.640Z,21.87
2018-03-23T03:23:18.236Z,20.97
2018-03-23T03:25:45.863Z,21.83
2018-03-23T03:28:13.392Z,21.17
2018-03-23T03:30:40.969Z,20.93
2018-03-23T03:33:08.544Z,21.13
2018-03-23T03:35:36.109Z,23.90
2018-03-23T03:38:03.663Z,20.77
2018-03-23T03:40:31.242Z,20.90
2018-03-23T03:42:58.783Z,21.30
2018-03-23T03:45:26.345Z,21.47
2018-03-23T03:47:53.922Z,19.27
2018-03-23T03:50:21.515Z,20.40
2018-03-23T03:52:49.146Z,20.47
2018-03-23T03:55:17.495Z,20.50
2018-03-23T03:57:45.042Z,21.83
2018-03-23T04:00:12.606Z,18.63
2018-03-23T04:02:40.150Z,20.97
2018-03-23T04:05:07.800Z,21.27
2018-03-23T04:07:35.339Z,20.03
2018-03-23T04:10:02.947Z,18.73
2018-03-23T04:12:30.871Z,18.20
2018-03-23T04:14:58.476Z,17.90
2018-03-23T04:17:26.029Z,17.90
2018-03-23T04:19:53.605Z,19.20
2018-03-23T04:22:21.234Z,19.77
2018-03-23T04:24:48.782Z,18.07
2018-03-23T04:27:16.419Z,18.27
2018-03-23T04:29:44.005Z,18.07
2018-03-23T04:32:11.617Z,18.17
2018-03-23T04:34:39.175Z,17.47
2018-03-23T04:37:06.787Z,17.70
2018-03-23T04:39:34.376Z,19.23
2018-03-23T04:42:01.975Z,18.23
2018-03-23T04:44:29.623Z,18.73
2018-03-23T04:46:57.199Z,18.10
2018-03-23T04:49:24.745Z,18.70
2018-03-23T04:51:52.300Z,18.77
2018-03-23T04:54:19.869Z,17.07
2018-03-23T04:56:47.426Z,17.53
2018-03-23T04:59:15.029Z,17.90
2018-03-23T05:01:42.600Z,17.30
2018-03-23T05:04:10.148Z,17.60
2018-03-23T05:06:37.725Z,18.03
2018-03-23T05:09:06.163Z,17.60
2018-03-23T05:11:33.703Z,18.37
2018-03-23T05:14:01.222Z,18.03
2018-03-23T05:16:28.802Z,18.93
2018-03-23T05:18:56.389Z,19.40
2018-03-23T05:21:23.944Z,18.77
2018-03-23T05:23:51.591Z,17.13
2018-03-23T05:26:20.886Z,18.07
2018-03-23T05:28:48.466Z,17.63
2018-03-23T05:31:16.073Z,17.87
2018-03-23T05:33:44.435Z,17.53
2018-03-23T05:36:12.784Z,18.03
2018-03-23T05:38:40.343Z,19.33
2018-03-23T05:41:07.900Z,17.97
2018-03-23T05:43:35.445Z,18.87
2018-03-23T05:46:03.023Z,19.20
2018-03-23T05:48:30.551Z,25.50
2018-03-23T05:50:58.119Z,20.27
2018-03-23T05:53:25.663Z,19.40
2018-03-23T05:55:53.262Z,19.70
2018-03-23T05:58:20.904Z,18.43
2018-03-23T06:00:48.484Z,19.40
2018-03-23T06:03:16.014Z,18.47
2018-03-23T06:05:43.603Z,18.97
2018-03-23T06:08:11.274Z,20.17
2018-03-23T06:10:39.052Z,20.73
2018-03-23T06:13:06.632Z,20.23
2018-03-23T06:15:34.220Z,20.10
2018-03-23T06:18:01.797Z,18.73
2018-03-23T06:20:29.346Z,19.73
2018-03-23T06:22:57.010Z,20.70
2018-03-23T06:25:24.585Z,20.17
2018-03-23T06:27:52.252Z,19.50
2018-03-23T06:30:19.857Z,20.17
2018-03-23T06:32:47.446Z,20.30
2018-03-23T06:35:15.013Z,18.70
2018-03-23T06:37:42.630Z,20.67
2018-03-23T06:40:11.233Z,21.00
2018-03-23T06:42:38.819Z,20.47
2018-03-23T06:45:06.398Z,18.67
2018-03-23T06:47:33.938Z,20.90
2018-03-23T06:50:01.515Z,20.60
2018-03-23T06:52:29.081Z,20.37
2018-03-23T06:54:56.617Z,19.00
2018-03-23T06:57:24.174Z,19.93
2018-03-23T06:59:51.755Z,18.73
2018-03-23T07:02:19.366Z,20.10
2018-03-23T07:04:46.981Z,20.00
2018-03-23T07:07:14.581Z,19.70
2018-03-23T07:09:42.221Z,20.23
2018-03-23T07:12:09.775Z,19.53
2018-03-23T07:14:37.348Z,18.93
2018-03-23T07:17:04.984Z,19.37
2018-03-23T07:19:32.565Z,19.23
2018-03-23T07:22:00.210Z,18.63
2018-03-23T07:24:27.868Z,20.30
2018-03-23T07:26:55.443Z,19.40
2018-03-23T07:29:23.053Z,19.07
2018-03-23T07:31:50.714Z,19.10
2018-03-23T07:34:18.249Z,19.10
2018-03-23T07:36:45.855Z,19.90
2018-03-23T07:39:13.429Z,18.60
2018-03-23T07:41:41.007Z,19.60
2018-03-23T07:44:08.582Z,19.80
2018-03-23T07:46:36.223Z,19.97
2018-03-23T07:49:04.477Z,19.40
2018-03-23T07:51:32.200Z,20.23
2018-03-23T07:54:00.564Z,19.50
2018-03-23T07:56:29.014Z,18.40
2018-03-23T07:58:56.552Z,18.37
2018-03-23T08:01:24.139Z,19.63
2018-03-23T08:03:51.706Z,20.57
2018-03-23T08:06:19.297Z,19.47
2018-03-23T08:08:46.933Z,19.43
2018-03-23T08:11:14.514Z,19.07
2018-03-23T08:13:42.116Z,18.53
2018-03-23T08:16:10.252Z,20.43
2018-03-23T08:18:37.816Z,21.20
2018-03-23T08:21:05.370Z,19.90
2018-03-23T08:23:33.782Z,19.57
2018-03-23T08:26:01.452Z,19.97
2018-03-23T08:28:29.036Z,20.80
2018-03-23T08:30:56.614Z,19.83
2018-03-23T08:33:24.159Z,20.13
2018-03-23T08:35:51.751Z,19.33
2018-03-23T08:38:19.402Z,18.77
2018-03-23T08:40:47.695Z,19.83
2018-03-23T08:43:15.339Z,19.77
2018-03-23T08:45:43.021Z,17.80
2018-03-23T08:48:10.664Z,19.47
2018-03-23T08:50:38.323Z,19.20
2018-03-23T08:53:05.997Z,18.30
2018-03-23T08:55:34.393Z,18.73
2018-03-23T08:58:02.188Z,18.23
2018-03-23T09:00:29.853Z,18.97
2018-03-23T09:02:57.506Z,19.47
2018-03-23T09:05:25.381Z,19.13
2018-03-23T09:07:53.712Z,18.53
2018-03-23T09:10:21.340Z,18.33
2018-03-23T09:12:48.984Z,20.07
2018-03-23T09:15:16.657Z,19.50
2018-03-23T09:17:44.318Z,19.20
2018-03-23T09:20:11.876Z,19.77
2018-03-23T09:22:39.520Z,19.90
2018-03-23T09:25:07.116Z,18.83
2018-03-23T09:27:34.705Z,18.10
2018-03-23T09:30:03.047Z,18.03
2018-03-23T09:32:30.595Z,16.47
2018-03-23T09:34:58.254Z,16.87
2018-03-23T09:37:25.881Z,16.10
2018-03-23T09:39:53.461Z,17.13
2018-03-23T09:42:21.150Z,16.60
2018-03-23T09:44:48.737Z,16.13
2018-03-23T09:47:17.072Z,16.63
2018-03-23T09:49:44.644Z,15.83
2018-03-23T09:52:12.243Z,17.10
2018-03-23T09:54:39.782Z,14.60
2018-03-23T09:57:07.321Z,15.37
2018-03-23T09:59:35.066Z,15.57
2018-03-23T10:02:02.694Z,15.17
2018-03-23T10:04:30.260Z,15.63
2018-03-23T10:06:57.860Z,16.57
2018-03-23T10:09:25.505Z,15.40
2018-03-23T10:11:53.092Z,16.57
2018-03-23T10:14:20.665Z,17.00
2018-03-23T10:16:48.368Z,16.10
2018-03-23T10:19:15.957Z,15.80
2018-03-23T10:21:43.583Z,15.53
2018-03-23T10:24:11.198Z,14.73
2018-03-23T10:26:38.757Z,14.40
2018-03-23T10:29:06.448Z,14.53
2018-03-23T10:31:34.062Z,14.50
2018-03-23T10:34:01.648Z,13.67
2018-03-23T10:36:29.256Z,13.60
2018-03-23T10:38:57.010Z,13.40
2018-03-23T10:41:24.657Z,11.90
2018-03-23T10:43:52.185Z,12.40
2018-03-23T10:46:19.788Z,12.10
2018-03-23T10:48:48.124Z,11.73
2018-03-23T10:51:15.768Z,12.53
2018-03-23T10:53:43.881Z,11.03
2018-03-23T10:56:11.506Z,11.37
2018-03-23T10:58:39.122Z,11.53
2018-03-23T11:01:12.257Z,11.03
2018-03-23T11:03:39.811Z,10.77
2018-03-23T11:06:07.393Z,11.53
2018-03-23T11:08:35.018Z,11.53
2018-03-23T11:11:02.623Z,13.07
2018-03-23T11:13:30.534Z,11.97
2018-03-23T11:15:58.111Z,11.17
2018-03-23T11:18:25.752Z,12.70
2018-03-23T11:20:53.449Z,13.43
2018-03-23T11:23:20.994Z,12.90
2018-03-23T11:25:48.673Z,12.97
2018-03-23T11:28:16.216Z,13.47
2018-03-23T11:30:43.792Z,13.67
2018-03-23T11:33:11.405Z,12.67
2018-03-23T11:35:38.996Z,13.97
2018-03-23T11:38:06.635Z,14.17
2018-03-23T11:40:34.199Z,12.97
2018-03-23T11:43:01.989Z,13.47
2018-03-23T11:45:29.527Z,13.23
2018-03-23T11:47:57.884Z,12.83
2018-03-23T11:50:26.227Z,13.47
2018-03-23T11:52:53.791Z,12.47
2018-03-23T11:55:21.346Z,12.83
2018-03-23T11:57:49.616Z,12.77
2018-03-23T12:00:17.249Z,13.27
2018-03-23T12:02:44.832Z,13.63
2018-03-23T12:05:12.459Z,14.83
2018-03-23T12:07:40.095Z,13.77
2018-03-23T12:10:07.830Z,12.97
2018-03-23T12:12:35.465Z,13.37
2018-03-23T12:15:03.020Z,13.77
2018-03-23T12:17:30.704Z,14.40
2018-03-23T12:19:58.356Z,12.80
2018-03-23T12:22:25.929Z,12.33
2018-03-23T12:24:53.518Z,12.67
2018-03-23T12:27:21.144Z,12.97
2018-03-23T12:29:48.752Z,11.80
2018-03-23T12:32:16.374Z,10.87
2018-03-23T12:34:43.991Z,11.73
2018-03-23T12:37:11.635Z,12.53
2018-03-23T12:39:39.680Z,11.50
2018-03-23T12:42:07.261Z,11.37
2018-03-23T12:44:34.800Z,12.10
2018-03-23T12:47:02.415Z,11.50
2018-03-23T12:49:30.022Z,11.67
2018-03-23T12:51:57.567Z,12.47
2018-03-23T12:54:25.146Z,11.97
2018-03-23T12:56:52.761Z,10.80
2018-03-23T12:59:20.313Z,10.03
2018-03-23T13:01:48.663Z,9.93
2018-03-23T13:04:16.273Z,10.73
2018-03-23T13:06:43.847Z,10.00
2018-03-23T13:09:11.436Z,10.17
2018-03-23T13:11:39.045Z,9.83
2018-03-23T13:14:06.649Z,9.90
2018-03-23T13:16:34.303Z,10.07
2018-03-23T13:19:01.923Z,10.40
2018-03-23T13:21:29.678Z,10.50
2018-03-23T13:23:57.249Z,10.40
2018-03-23T13:26:24.897Z,10.67
2018-03-23T13:28:52.571Z,10.27
2018-03-23T13:31:20.408Z,10.47
2018-03-23T13:33:47.976Z,10.40
2018-03-23T13:36:15.679Z,10.40
2018-03-23T13:38:43.550Z,10.20
2018-03-23T13:41:11.158Z,9.93
2018-03-23T13:43:38.713Z,9.10
2018-03-23T13:46:06.278Z,9.90
2018-03-23T13:48:34.724Z,9.83
2018-03-23T13:51:02.276Z,9.90
2018-03-23T13:53:29.919Z,9.20
2018-03-23T13:55:57.454Z,10.43
2018-03-23T14:01:30.009Z,9.60
2018-03-23T14:03:57.637Z,9.07
2018-03-23T14:06:25.270Z,9.63
2018-03-23T14:08:53.610Z,8.23
2018-03-23T14:11:21.175Z,7.57
2018-03-23T14:13:48.744Z,7.73
2018-03-23T14:16:16.360Z,7.93
2018-03-23T14:18:43.933Z,7.87
2018-03-23T14:21:11.469Z,7.20
2018-03-23T14:23:39.068Z,7.67
2018-03-23T14:26:06.609Z,7.43
2018-03-23T14:28:34.277Z,7.40
2018-03-23T14:31:01.926Z,7.57
2018-03-23T14:33:29.527Z,8.10
2018-03-23T14:35:57.060Z,7.80
2018-03-23T14:38:24.655Z,8.83
2018-03-23T14:40:52.189Z,8.53
2018-03-23T14:43:19.783Z,7.73
2018-03-23T14:45:47.371Z,9.30
2018-03-23T14:48:15.733Z,8.93
2018-03-23T14:50:44.187Z,8.93
2018-03-23T14:53:12.667Z,9.17
2018-03-23T14:55:42.399Z,9.00
2018-03-23T14:58:10.032Z,10.47
2018-03-23T15:00:37.638Z,10.17
2018-03-23T15:03:05.982Z,8.20
2018-03-23T15:05:33.607Z,7.47
2018-03-23T15:08:01.679Z,6.57
2018-03-23T15:10:29.254Z,7.83
2018-03-23T15:12:56.867Z,7.30
2018-03-23T15:15:24.417Z,7.10
2018-03-23T15:17:52.027Z,7.03
2018-03-23T15:20:19.598Z,6.80
2018-03-23T15:22:47.163Z,7.60
2018-03-23T15:25:14.994Z,7.10
2018-03-23T15:27:42.578Z,7.33
2018-03-23T15:30:10.186Z,9.80
2018-03-23T15:32:37.733Z,9.70
2018-03-23T15:35:05.379Z,9.63
2018-03-23T15:37:32.929Z,10.30
2018-03-23T15:40:00.572Z,10.67
2018-03-23T15:42:28.117Z,9.60
2018-03-23T15:44:55.701Z,10.13
2018-03-23T15:47:23.331Z,10.23
2018-03-23T15:49:50.880Z,10.30
2018-03-23T15:52:18.444Z,10.73
2018-03-23T15:54:46.043Z,9.37
2018-03-23T15:57:14.976Z,10.60
2018-03-23T15:59:43.417Z,10.00
2018-03-23T16:02:11.033Z,11.20
2018-03-23T16:04:38.639Z,11.27
2018-03-23T16:07:06.266Z,10.93
2018-03-23T16:09:33.820Z,11.17
2018-03-23T16:12:01.442Z,10.23
2018-03-23T16:14:29.059Z,11.30
2018-03-23T16:16:57.421Z,10.70
2018-03-23T16:19:25.748Z,9.70
2018-03-23T16:21:53.346Z,9.93
2018-03-23T16:24:20.977Z,9.67
2018-03-23T16:26:48.674Z,11.43
2018-03-23T16:29:16.281Z,11.40
2018-03-23T16:31:43.859Z,9.83
2018-03-23T16:34:11.420Z,10.00
2018-03-23T16:36:38.965Z,10.00
2018-03-23T16:39:06.580Z,9.70
2018-03-23T16:41:34.160Z,10.43
2018-03-23T16:44:01.745Z,10.20
2018-03-23T16:46:29.308Z,10.80
2018-03-23T16:48:56.949Z,9.93
2018-03-23T16:51:24.522Z,10.37
2018-03-23T16:53:52.081Z,9.70
2018-03-23T16:56:19.668Z,9.90
2018-03-23T16:58:47.296Z,10.47
2018-03-23T17:01:14.886Z,9.87
2018-03-23T17:03:42.652Z,10.47
2018-03-23T17:06:10.226Z,9.90
2018-03-23T17:08:37.826Z,10.50
2018-03-23T17:11:05.562Z,10.13
2018-03-23T17:13:33.159Z,10.17
2018-03-23T17:16:00.704Z,10.23
2018-03-23T17:18:28.279Z,10.10
2018-03-23T17:20:55.898Z,11.20
2018-03-23T17:23:23.445Z,11.10
2018-03-23T17:25:51.058Z,10.70
2018-03-23T17:28:18.677Z,11.70
2018-03-23T17:30:46.279Z,12.60
2018-03-23T17:33:13.838Z,14.83
2018-03-23T17:35:41.405Z,16.23
2018-03-23T17:38:08.948Z,17.47
2018-03-23T17:40:36.486Z,12.47
2018-03-23T17:43:04.830Z,11.73
2018-03-23T17:45:32.370Z,11.30
2018-03-23T17:47:59.905Z,12.37
2018-03-23T17:50:27.476Z,10.40
2018-03-23T17:52:55.079Z,11.13
2018-03-23T17:55:22.686Z,10.47
2018-03-23T17:57:50.269Z,12.63
2018-03-23T18:00:17.808Z,14.17
2018-03-23T18:02:45.421Z,12.63
2018-03-23T18:05:13.164Z,13.63
2018-03-23T18:07:40.791Z,16.60
2018-03-23T18:10:08.399Z,17.17
2018-03-23T18:12:35.936Z,16.97
2018-03-23T18:15:03.585Z,17.37
2018-03-23T18:17:31.165Z,17.63
2018-03-23T18:19:58.744Z,17.07
2018-03-23T18:22:26.420Z,18.13
2018-03-23T18:24:53.972Z,17.43
2018-03-23T18:27:21.555Z,15.60
2018-03-23T18:29:49.880Z,16.87
2018-03-23T18:32:17.450Z,16.10
2018-03-23T18:34:45.027Z,16.47
2018-03-23T18:37:12.593Z,16.77
2018-03-23T18:39:40.169Z,16.23
2018-03-23T18:42:07.816Z,16.43
2018-03-23T18:44:35.468Z,17.00
2018-03-23T18:47:03.077Z,16.93
2018-03-23T18:49:30.668Z,15.63
2018-03-23T18:51:58.252Z,14.97
2018-03-23T18:54:25.821Z,15.90
2018-03-23T18:56:53.407Z,15.43
2018-03-23T18:59:20.978Z,16.87
2018-03-23T19:01:48.512Z,15.87
2018-03-23T19:04:16.090Z,15.77
2018-03-23T19:06:43.710Z,16.77
2018-03-23T19:09:11.640Z,14.97
2018-03-23T19:11:39.224Z,15.17
2018-03-23T19:14:06.788Z,15.00
2018-03-23T19:16:34.339Z,14.77
2018-03-23T19:19:01.942Z,15.83
2018-03-23T19:21:29.505Z,17.13
2018-03-23T19:23:57.160Z,15.70
2018-03-23T19:26:24.721Z,15.73
2018-03-23T19:28:52.296Z,15.47
2018-03-23T19:31:20.600Z,15.37
2018-03-23T19:33:48.182Z,15.47
2018-03-23T19:36:15.745Z,15.53
2018-03-23T19:38:43.313Z,16.13
2018-03-23T19:41:10.853Z,16.57
2018-03-23T19:43:38.433Z,16.73
2018-03-23T19:46:06.042Z,16.63
2018-03-23T19:48:33.602Z,16.43
2018-03-23T19:51:01.182Z,17.30
2018-03-23T19:53:28.786Z,16.47
2018-03-23T19:55:56.381Z,16.87
2018-03-23T19:58:23.979Z,17.00
2018-03-23T20:00:51.539Z,17.27
2018-03-23T20:03:19.102Z,16.20
2018-03-23T20:05:46.679Z,16.40
2018-03-23T20:08:14.287Z,17.07
2018-03-23T20:10:41.850Z,17.80
2018-03-23T20:13:09.427Z,17.73
2018-03-23T20:15:36.978Z,17.17
2018-03-23T20:18:10.104Z,18.13
2018-03-23T20:20:43.204Z,17.27
2018-03-23T20:23:10.755Z,17.63
2018-03-23T20:25:38.355Z,19.30
2018-03-23T20:28:11.529Z,20.40
2018-03-23T20:30:39.175Z,17.43
2018-03-23T20:33:06.748Z,16.87
2018-03-23T20:35:34.286Z,18.43
2018-03-23T20:38:01.861Z,17.10
2018-03-23T20:40:29.437Z,18.83
2018-03-23T20:42:56.991Z,18.43
2018-03-23T20:45:24.558Z,20.40
2018-03-23T20:47:52.114Z,19.00
2018-03-23T20:50:19.718Z,18.63
2018-03-23T20:52:47.347Z,17.63
2018-03-23T20:55:15.719Z,16.77
2018-03-23T20:57:44.063Z,18.47
2018-03-23T21:00:11.628Z,17.97
2018-03-23T21:02:39.266Z,19.93
2018-03-23T21:05:06.853Z,18.53
2018-03-23T21:07:34.406Z,18.63
2018-03-23T21:10:02.052Z,19.03
2018-03-23T21:12:29.640Z,20.03
2018-03-23T21:14:57.184Z,19.43
2018-03-23T21:17:24.783Z,20.27
2018-03-23T21:19:52.317Z,19.57
2018-03-23T21:22:19.948Z,20.33
2018-03-23T21:24:47.548Z,19.47
2018-03-23T21:27:15.097Z,20.87
2018-03-23T21:29:42.649Z,19.23
2018-03-23T21:32:10.250Z,19.53
2018-03-23T21:34:37.816Z,20.57
2018-03-23T21:37:06.129Z,19.40
2018-03-23T21:39:33.741Z,18.23
2018-03-23T21:42:01.457Z,18.33
2018-03-23T21:44:29.016Z,17.70
2018-03-23T21:46:56.706Z,18.73
2018-03-23T21:49:24.272Z,20.97
2018-03-23T21:51:51.828Z,21.20
2018-03-23T21:54:19.411Z,19.50
2018-03-23T21:56:46.970Z,17.37
2018-03-23T21:59:14.563Z,17.53
2018-03-23T22:01:42.146Z,19.03
2018-03-23T22:04:10.476Z,18.13
2018-03-23T22:06:38.118Z,17.87
2018-03-23T22:09:05.706Z,19.30
2018-03-23T22:11:33.278Z,19.73
2018-03-23T22:14:00.814Z,18.57
2018-03-23T22:16:28.399Z,19.03
2018-03-23T22:18:56.927Z,19.47
2018-03-23T22:21:25.215Z,18.43
2018-03-23T22:23:52.871Z,19.93
2018-03-23T22:26:20.426Z,18.47
2018-03-23T22:28:48.755Z,18.93
2018-03-23T22:31:16.313Z,20.53
2018-03-23T22:33:43.870Z,21.20
2018-03-23T22:36:11.442Z,21.93
2018-03-23T22:38:39.089Z,20.27
2018-03-23T22:41:06.790Z,20.20
2018-03-23T22:43:34.366Z,21.87
2018-03-23T22:46:01.910Z,19.67
2018-03-23T22:48:30.225Z,19.07
2018-03-23T22:50:57.782Z,17.43
2018-03-23T22:53:25.354Z,18.23
2018-03-23T22:55:52.882Z,18.03
2018-03-23T22:58:20.500Z,18.57
2018-03-23T23:00:48.089Z,18.47
2018-03-23T23:03:15.639Z,19.20
2018-03-23T23:05:43.222Z,20.23
2018-03-23T23:08:10.810Z,20.00
2018-03-23T23:10:38.383Z,19.67
2018-03-23T23:13:05.984Z,19.87
2018-03-23T23:15:33.570Z,19.27
2018-03-23T23:18:01.153Z,19.27
2018-03-23T23:20:28.691Z,17.53
2018-03-23T23:22:56.235Z,19.07
2018-03-23T23:25:23.794Z,19.73
2018-03-23T23:27:51.341Z,18.77
2018-03-23T23:30:18.907Z,18.23
2018-03-23T23:32:46.472Z,18.73
2018-03-23T23:35:14.053Z,19.10
2018-03-23T23:37:41.632Z,18.67
2018-03-23T23:40:09.193Z,18.27
2018-03-23T23:42:36.733Z,19.40
2018-03-23T23:45:04.314Z,17.63
2018-03-23T23:47:31.929Z,17.63
2018-03-23T23:49:59.541Z,19.13
2018-03-23T23:52:27.156Z,19.17
2018-03-23T23:54:54.719Z,19.57
2018-03-23T23:57:22.253Z,19.80
2018-03-23T23:59:50.614Z,18.47
